Time;durP1;ratioP1;P1;durP2;ratioP2;P2;SDS_P1;SDS_P2;PMS_P1;PMS_P2;Temp;Humidity;BMP_temperature;BMP_pressure;BME280_temperature;BME280_humidity;BME280_pressure;Samples;Min_cycle;Max_cycle;Signal;HPM_P1;HPM_P2
2023/08/06 00:08:29;;;;;;;0.10;0.10;;;;;;;20.56;82.44;99982.66;5093654;28;20038;-92
2023/08/06 00:18:32;;;;;;;0.10;0.10;;;;;;;20.45;84.03;99970.63;5073573;28;20056;-90
2023/08/06 00:20:57;;;;;;;0.10;0.10;;;;;;;20.49;84.89;99982.44;5023344;28;20041;-91
2023/08/06 00:23:23;;;;;;;0.10;0.10;;;;;;;20.53;82.88;99989.03;5022913;28;20036;-92
2023/08/06 00:25:48;;;;;;;0.10;0.10;;;;;;;20.51;83.43;100001.50;5022394;28;20095;-92
2023/08/06 00:28:13;;;;;;;0.10;0.10;;;;;;;20.50;84.12;99999.84;5023391;28;20028;-93
2023/08/06 00:30:39;;;;;;;0.10;0.10;;;;;;;20.50;84.45;100001.66;5054272;28;20502;-90
2023/08/06 00:33:04;;;;;;;0.10;0.10;;;;;;;20.49;83.93;100008.72;5059439;28;20093;-93
2023/08/06 00:35:30;;;;;;;0.10;0.10;;;;;;;20.42;83.45;100006.81;5059689;28;20028;-91
2023/08/06 00:37:55;;;;;;;0.10;0.10;;;;;;;20.40;84.74;99995.66;5060765;28;20035;-92
2023/08/06 00:40:22;;;;;;;0.10;0.10;;;;;;;20.40;87.02;100008.78;5059786;28;20474;-90
2023/08/06 00:42:48;;;;;;;0.10;0.10;;;;;;;20.22;85.25;99969.41;5058966;28;20024;-90
2023/08/06 00:45:13;;;;;;;0.10;0.10;;;;;;;20.25;85.89;99913.94;5060126;28;20085;-91
2023/08/06 00:47:39;;;;;;;0.10;0.10;;;;;;;20.12;88.81;99845.25;5059687;28;20028;-91
2023/08/06 00:50:06;;;;;;;0.10;0.10;;;;;;;20.19;89.14;99828.75;5059660;28;20408;-91
2023/08/06 00:52:32;;;;;;;0.10;0.10;;;;;;;20.20;87.00;99830.38;5060839;28;20126;-92
2023/08/06 00:55:13;;;;;;;0.10;0.10;;;;;;;20.14;85.08;99899.25;5060435;28;20470;-91
2023/08/06 00:58:23;;;;;;;0.10;0.10;;;;;;;20.27;86.50;99904.97;5060063;28;20028;-91
2023/08/06 01:00:49;;;;;;;0.10;0.10;;;;;;;20.34;86.84;99929.59;5074888;28;20038;-91
2023/08/06 01:03:15;;;;;;;0.10;0.10;;;;;;;20.11;88.83;99952.09;5058030;28;20028;-90
2023/08/06 01:05:41;;;;;;;0.10;0.10;;;;;;;19.79;89.49;99947.41;5058014;28;20481;-90
2023/08/06 01:08:49;;;;;;;0.10;0.10;;;;;;;19.91;88.62;99954.06;5057826;28;20024;-93
2023/08/06 01:11:37;;;;;;;0.10;0.10;;;;;;;19.83;88.10;99934.81;5058745;28;20020;-91
2023/08/06 01:14:08;;;;;;;0.10;0.10;;;;;;;19.63;91.85;99995.31;5042345;28;20052;-91
2023/08/06 01:16:33;;;;;;;0.28;0.10;;;;;;;19.86;93.41;100015.84;5054796;28;20489;-93
2023/08/06 01:18:59;;;;;;;0.10;0.10;;;;;;;19.95;90.46;99949.34;5074929;28;20034;-93
2023/08/06 01:21:24;;;;;;;0.10;0.10;;;;;;;20.18;90.43;99992.53;5058268;28;20027;-90
2023/08/06 01:23:50;;;;;;;0.10;0.10;;;;;;;20.20;90.15;100011.59;5058270;28;20031;-92
2023/08/06 01:26:30;;;;;;;0.10;0.10;;;;;;;20.32;90.78;99991.97;5059012;28;20028;-90
2023/08/06 01:29:16;;;;;;;0.10;0.10;;;;;;;20.20;88.61;99964.31;5058982;28;20126;-93
2023/08/06 01:31:43;;;;;;;0.10;0.10;;;;;;;20.39;88.11;99996.63;5076458;28;20051;-91
2023/08/06 01:34:17;;;;;;;0.10;0.10;;;;;;;20.34;87.60;100021.53;5059697;28;20030;-92
2023/08/06 01:36:43;;;;;;;0.10;0.10;;;;;;;20.45;88.69;100032.81;5059218;28;20122;-92
2023/08/06 01:39:08;;;;;;;0.10;0.10;;;;;;;20.53;88.22;100043.38;5059934;28;20016;-91
2023/08/06 02:09:25;;;;;;;0.10;0.10;;;;;;;20.39;83.79;99917.81;5093667;28;20144;-92
2023/08/06 02:11:51;;;;;;;0.10;0.10;;;;;;;20.28;87.54;99964.38;5074830;28;20200;-91
2023/08/06 02:14:23;;;;;;;0.10;0.10;;;;;;;20.32;85.65;99936.81;5062275;28;20482;-92
2023/08/06 02:41:25;;;;;;;0.10;0.10;;;;;;;20.21;85.91;99952.84;5132453;28;20088;-90
2023/08/06 02:50:50;;;;;;;0.10;0.10;;;;;;;20.23;84.66;99911.47;5133207;28;20059;-90
2023/08/06 02:56:38;;;;;;;0.10;0.10;;;;;;;20.26;84.67;99879.66;5133748;28;20034;-90
2023/08/06 02:59:03;;;;;;;0.10;0.10;;;;;;;20.32;83.54;99886.91;5082243;28;20392;-90
2023/08/06 03:01:29;;;;;;;0.10;0.10;;;;;;;20.28;84.76;99880.34;5082221;28;20064;-90
2023/08/06 03:11:25;;;;;;;0.10;0.10;;;;;;;20.22;83.32;99885.38;5132497;28;20034;-94
2023/08/06 03:17:56;;;;;;;0.10;0.10;;;;;;;20.04;86.48;99872.28;5128786;28;20093;-92
2023/08/06 03:20:28;;;;;;;0.10;0.10;;;;;;;20.18;84.87;99853.34;5082026;28;20073;-91
2023/08/06 03:22:53;;;;;;;0.10;0.10;;;;;;;20.12;84.41;99861.84;5082054;28;20020;-91
2023/08/06 03:25:19;;;;;;;0.10;0.10;;;;;;;20.02;84.79;99861.13;5081129;28;20487;-89
2023/08/06 03:28:10;;;;;;;0.10;0.10;;;;;;;20.11;84.50;99889.09;5082378;27;20031;-93
2023/08/06 03:30:36;;;;;;;0.10;0.10;;;;;;;20.10;84.68;99878.75;5100875;27;20041;-92
2023/08/06 03:33:42;;;;;;;0.10;0.10;;;;;;;20.17;85.22;99893.72;5085068;27;20019;-91
2023/08/06 03:46:45;;;;;;;0.10;0.10;;;;;;;20.13;86.29;99881.88;5135510;27;20031;-92
2023/08/06 04:10:26;;;;;;;0.10;0.10;;;;;;;20.50;85.01;99883.44;5134801;27;20027;-92
2023/08/06 04:16:14;;;;;;;0.10;0.10;;;;;;;20.58;83.22;99888.72;5135185;27;20144;-92
2023/08/06 04:18:40;;;;;;;0.10;0.10;;;;;;;20.48;82.82;99890.66;5084316;27;20063;-92
2023/08/06 04:21:06;;;;;;;0.10;0.10;;;;;;;20.53;82.99;99893.63;5084562;27;20047;-92
2023/08/06 04:23:31;;;;;;;0.10;0.10;;;;;;;20.52;82.81;99891.97;5084402;27;20385;-90
2023/08/06 04:29:23;;;;;;;0.10;0.10;;;;;;;20.62;81.36;99896.13;5134268;27;20046;-90
2023/08/06 04:31:48;;;;;;;0.10;0.10;;;;;;;20.62;82.19;99893.50;5083766;27;20027;-91
2023/08/06 04:34:13;;;;;;;0.10;0.10;;;;;;;20.71;80.99;99889.09;5083813;27;20019;-90
2023/08/06 04:37:07;;;;;;;0.10;0.10;;;;;;;20.76;81.94;99889.47;5083946;27;20031;-91
2023/08/06 04:47:21;;;;;;;0.10;0.10;;;;;;;20.75;83.08;99902.78;5134388;27;20419;-93
2023/08/06 04:53:08;;;;;;;0.10;0.10;;;;;;;20.70;84.09;99908.50;5135557;27;20047;-92
2023/08/06 04:56:19;;;;;;;0.10;0.10;;;;;;;20.87;84.38;99918.09;5100798;27;20031;-90
2023/08/06 04:58:45;;;;;;;0.10;0.10;;;;;;;20.90;83.65;99923.03;5117073;27;20084;-90
2023/08/06 05:01:10;;;;;;;0.10;0.10;;;;;;;20.97;83.43;99928.50;5083570;27;20035;-92
2023/08/06 05:03:47;;;;;;;0.10;0.10;;;;;;;20.99;83.69;99917.81;5083825;27;20027;-91
2023/08/06 05:06:12;;;;;;;0.10;0.10;;;;;;;21.03;82.97;99916.50;5083805;27;20397;-91
2023/08/06 05:08:38;;;;;;;0.10;0.10;;;;;;;21.06;82.21;99918.81;5083446;27;20042;-91
2023/08/06 05:11:15;;;;;;;0.10;0.10;;;;;;;21.08;81.65;99914.22;5083602;27;20547;-90
2023/08/06 05:17:04;;;;;;;0.10;0.10;;;;;;;21.21;83.56;99935.63;5134841;27;20511;-91
2023/08/06 05:23:23;;;;;;;0.10;0.10;;;;;;;21.34;82.42;99936.03;5134999;27;20058;-91
2023/08/06 05:25:49;;;;;;;0.10;0.10;;;;;;;21.26;80.45;99936.00;5099540;27;20031;-91
2023/08/06 05:28:14;;;;;;;0.10;0.10;;;;;;;21.35;79.80;99950.00;5083247;27;20072;-91
2023/08/06 05:30:40;;;;;;;0.10;0.10;;;;;;;21.42;80.82;99933.41;5082614;27;20019;-93
2023/08/06 05:33:06;;;;;;;0.10;0.10;;;;;;;21.44;77.53;99936.72;5082617;27;20479;-91
2023/08/06 05:35:31;;;;;;;0.10;0.10;;;;;;;21.55;77.75;99926.88;5083556;27;20038;-90
2023/08/06 05:37:57;;;;;;;0.10;0.10;;;;;;;21.45;79.08;99922.56;5082993;27;20396;-89
2023/08/06 05:40:22;;;;;;;0.10;0.10;;;;;;;21.49;79.83;99917.78;5082244;27;20029;-92
2023/08/06 05:42:48;;;;;;;0.10;0.10;;;;;;;21.50;78.70;99908.09;5082502;27;20027;-93
2023/08/06 05:45:13;;;;;;;0.10;0.10;;;;;;;21.60;78.47;99901.69;5082173;27;20035;-89
2023/08/06 05:51:05;;;;;;;0.10;0.10;;;;;;;21.49;78.17;99896.75;5134519;27;20469;-91
2023/08/06 05:53:31;;;;;;;0.10;0.10;;;;;;;21.45;77.72;99904.16;5081668;27;20083;-91
2023/08/06 05:55:56;;;;;;;0.10;0.10;;;;;;;21.52;78.37;99911.38;5081918;27;20027;-91
2023/08/06 05:58:53;;;;;;;0.10;0.10;;;;;;;21.63;79.08;99916.31;5099093;27;20030;-92
2023/08/06 06:01:19;;;;;;;0.10;0.10;;;;;;;21.64;77.71;99910.91;5098102;27;20031;-92
2023/08/06 06:03:44;;;;;;;0.10;0.10;;;;;;;21.69;77.29;99915.69;5099654;27;20019;-92
2023/08/06 06:06:10;;;;;;;0.10;0.10;;;;;;;21.71;77.87;99911.88;5081411;27;20049;-90
2023/08/06 06:08:35;;;;;;;0.10;0.10;;;;;;;21.63;78.59;99914.53;5082118;27;20031;-91
2023/08/06 06:11:00;;;;;;;0.10;0.10;;;;;;;21.58;77.70;99931.78;5081373;27;20034;-92
2023/08/06 06:13:26;;;;;;;0.10;0.10;;;;;;;21.66;79.44;99934.44;5080724;27;20085;-91
2023/08/06 06:15:55;;;;;;;0.10;0.10;;;;;;;21.73;77.57;99930.19;5081264;28;20038;-91
2023/08/06 06:18:20;;;;;;;0.10;0.10;;;;;;;21.82;78.62;99942.34;5080165;28;20051;-92
2023/08/06 06:20:45;;;;;;;0.10;0.10;;;;;;;21.82;77.88;99941.50;5080618;27;20031;-92
2023/08/06 06:23:11;;;;;;;0.10;0.10;;;;;;;21.59;77.11;99934.25;5080608;28;20038;-90
2023/08/06 06:25:36;;;;;;;0.10;0.10;;;;;;;21.72;76.44;99928.50;5097187;28;20476;-91
2023/08/06 06:28:02;;;;;;;0.10;0.10;;;;;;;21.72;76.57;99918.78;5080345;28;20103;-89
2023/08/06 06:30:27;;;;;;;0.10;0.10;;;;;;;21.73;76.16;99911.75;5080486;28;20019;-90
2023/08/06 06:32:53;;;;;;;0.10;0.10;;;;;;;21.70;75.82;99912.06;5080467;28;20027;-91
2023/08/06 06:35:18;;;;;;;0.10;0.10;;;;;;;21.70;78.17;99922.59;5080248;28;20119;-91
2023/08/06 06:37:44;;;;;;;0.10;0.10;;;;;;;21.71;75.35;99913.69;5080400;28;20023;-93
2023/08/06 06:40:10;;;;;;;0.10;0.10;;;;;;;21.69;75.78;99911.25;5080041;28;20512;-93
2023/08/06 06:42:35;;;;;;;0.10;0.10;;;;;;;21.66;74.56;99911.56;5080136;28;20051;-90
2023/08/06 06:45:01;;;;;;;0.10;0.10;;;;;;;21.81;76.09;99932.78;5080322;28;20031;-91
2023/08/06 06:47:26;;;;;;;0.10;0.10;;;;;;;21.94;74.17;99941.03;5080261;28;20065;-92
2023/08/06 06:49:51;;;;;;;0.10;0.10;;;;;;;21.98;73.58;99942.34;5080134;28;20404;-91
2023/08/06 06:52:17;;;;;;;0.10;0.10;;;;;;;22.15;73.96;99955.53;5080588;28;20019;-94
2023/08/06 06:54:42;;;;;;;0.20;0.20;;;;;;;22.21;73.56;99970.69;5079922;28;20488;-93
2023/08/06 06:57:08;;;;;;;0.10;0.10;;;;;;;22.37;72.95;99989.13;5080283;28;20031;-92
2023/08/06 06:59:33;;;;;;;0.10;0.10;;;;;;;22.43;71.21;99991.09;5080169;28;20034;-90
2023/08/06 07:01:59;;;;;;;0.10;0.10;;;;;;;22.71;70.65;99988.88;5080076;28;20541;-91
2023/08/06 07:04:24;;;;;;;0.10;0.10;;;;;;;22.80;69.97;99981.78;5082933;27;20023;-93
2023/08/06 07:06:51;;;;;;;0.10;0.10;;;;;;;22.87;69.49;99985.41;5084060;27;20023;-90
2023/08/06 07:09:17;;;;;;;0.10;0.10;;;;;;;23.02;68.84;99994.28;5084141;27;21129;-93
2023/08/06 07:11:43;;;;;;;0.10;0.10;;;;;;;23.24;67.71;100011.16;5083924;27;20078;-91
2023/08/06 07:14:09;;;;;;;0.20;0.20;;;;;;;23.30;67.34;99997.25;5101127;27;20492;-94
2023/08/06 07:16:35;;;;;;;0.10;0.10;;;;;;;23.48;66.92;100007.56;5083758;27;20046;-91
2023/08/06 07:19:01;;;;;;;0.10;0.10;;;;;;;23.51;67.17;100001.97;5084098;27;20039;-92
2023/08/06 07:21:26;;;;;;;0.10;0.10;;;;;;;23.53;66.90;99989.41;5084076;27;20023;-90
2023/08/06 07:23:52;;;;;;;0.10;0.10;;;;;;;23.55;67.19;99987.41;5083554;27;20027;-91
2023/08/06 07:26:17;;;;;;;0.10;0.10;;;;;;;23.36;67.44;99972.84;5083680;27;20023;-90
2023/08/06 07:28:43;;;;;;;0.10;0.10;;;;;;;23.37;65.62;99969.19;5083769;27;20403;-91
2023/08/06 07:31:08;;;;;;;0.10;0.10;;;;;;;23.42;65.71;99980.06;5083487;27;20030;-92
2023/08/06 07:33:34;;;;;;;0.10;0.10;;;;;;;23.17;67.81;99982.00;5083476;27;20031;-91
2023/08/06 07:36:00;;;;;;;0.10;0.10;;;;;;;23.00;67.47;99988.31;5083644;27;20104;-91
2023/08/06 07:38:26;;;;;;;0.10;0.10;;;;;;;23.32;67.26;99983.91;5083625;27;20023;-90
2023/08/06 07:40:51;;;;;;;0.10;0.10;;;;;;;23.52;64.61;99977.22;5083346;27;20027;-93
2023/08/06 07:43:17;;;;;;;0.10;0.10;;;;;;;23.68;63.06;99982.41;5083828;27;20027;-93
2023/08/06 07:45:42;;;;;;;0.10;0.10;;;;;;;23.89;61.70;99973.00;5083260;27;20511;-90
2023/08/06 07:48:08;;;;;;;0.10;0.10;;;;;;;24.07;62.43;99981.44;5083387;27;20023;-92
2023/08/06 07:50:33;;;;;;;0.10;0.10;;;;;;;24.34;61.71;99984.56;5083494;27;20034;-92
2023/08/06 07:52:58;;;;;;;0.10;0.10;;;;;;;24.43;60.58;99976.38;5083223;27;20499;-90
2023/08/06 07:55:25;;;;;;;0.10;0.10;;;;;;;24.40;59.75;99970.63;5100163;27;20035;-90
2023/08/06 07:57:50;;;;;;;0.10;0.10;;;;;;;24.54;60.31;99983.88;5083316;27;20019;-92
2023/08/06 08:00:16;;;;;;;0.10;0.10;;;;;;;24.58;58.64;99971.09;5083109;27;20038;-93
2023/08/06 08:02:41;;;;;;;0.10;0.10;;;;;;;24.36;59.42;99948.19;5083086;27;20604;-93
2023/08/06 08:05:08;;;;;;;0.10;0.10;;;;;;;24.66;57.19;99965.72;5100108;27;20507;-92
2023/08/06 08:07:33;;;;;;;0.10;0.10;;;;;;;24.72;58.00;99969.47;5082942;27;20118;-91
2023/08/06 08:09:59;;;;;;;0.10;0.10;;;;;;;24.73;57.25;99974.56;5084028;27;20023;-91
2023/08/06 08:12:24;;;;;;;0.20;0.20;;;;;;;24.65;58.25;99982.59;5083241;27;20515;-92
2023/08/06 08:14:49;;;;;;;0.13;0.13;;;;;;;24.94;57.33;99970.38;5082273;27;20110;-91
2023/08/06 08:17:15;;;;;;;0.10;0.10;;;;;;;25.17;57.80;99971.09;5082841;27;20050;-92
2023/08/06 08:19:41;;;;;;;0.13;0.13;;;;;;;25.07;55.96;99962.63;5083087;27;20039;-91
2023/08/06 08:22:06;;;;;;;0.10;0.10;;;;;;;25.13;54.45;99968.00;5082510;27;20035;-91
2023/08/06 08:24:32;;;;;;;0.10;0.10;;;;;;;24.68;56.80;99963.75;5082943;27;20062;-93
2023/08/06 08:26:57;;;;;;;0.10;0.10;;;;;;;25.00;55.72;99967.00;5082765;27;20031;-92
2023/08/06 08:29:23;;;;;;;0.10;0.10;;;;;;;25.11;55.55;99961.25;5082376;27;20023;-93
2023/08/06 08:31:51;;;;;;;0.10;0.10;;;;;;;25.15;57.25;99967.81;5083017;27;20102;-90
2023/08/06 08:34:17;;;;;;;0.10;0.10;;;;;;;25.50;55.68;99973.31;5083296;27;20020;-93
2023/08/06 08:36:43;;;;;;;0.10;0.10;;;;;;;25.36;54.48;99978.44;5082180;27;20038;-92
2023/08/06 08:39:08;;;;;;;0.20;0.20;;;;;;;25.46;54.86;99971.03;5082807;27;20066;-94
2023/08/06 08:41:34;;;;;;;0.10;0.10;;;;;;;25.59;54.26;99969.53;5082551;27;20024;-95
2023/08/06 08:44:00;;;;;;;0.20;0.20;;;;;;;25.53;54.23;99960.50;5082188;27;20435;-92
2023/08/06 08:46:32;;;;;;;0.20;0.20;;;;;;;25.79;54.66;99964.47;5082834;27;20031;-93
2023/08/06 08:48:57;;;;;;;0.20;0.20;;;;;;;25.86;55.80;99931.75;5098882;27;20023;-93
2023/08/06 08:51:23;;;;;;;0.13;0.13;;;;;;;26.17;54.39;99959.72;5081951;27;20038;-90
2023/08/06 08:53:48;;;;;;;0.20;0.20;;;;;;;26.10;52.06;99943.75;5082252;27;20023;-92
2023/08/06 08:56:14;;;;;;;0.10;0.10;;;;;;;26.10;52.83;99948.22;5082100;27;20412;-92
2023/08/06 08:58:40;;;;;;;0.10;0.10;;;;;;;26.22;51.20;99941.38;5082420;27;20020;-91
2023/08/06 09:01:05;;;;;;;0.20;0.20;;;;;;;25.92;52.56;99924.84;5082457;27;20078;-92
2023/08/06 09:03:30;;;;;;;0.10;0.10;;;;;;;26.23;52.58;99950.97;5082548;27;20031;-93
2023/08/06 09:05:56;;;;;;;0.10;0.10;;;;;;;26.40;51.91;99944.41;5081690;27;20022;-91
2023/08/06 09:08:26;;;;;;;0.10;0.10;;;;;;;26.28;52.38;99940.63;5081713;27;20023;-93
2023/08/06 09:10:52;;;;;;;0.10;0.10;;;;;;;26.46;52.80;99933.03;5082231;27;20027;-92
2023/08/06 09:13:17;;;;;;;0.20;0.20;;;;;;;26.59;50.92;99930.44;5081800;27;20030;-93
2023/08/06 09:15:44;;;;;;;0.10;0.10;;;;;;;26.74;50.99;99929.47;5081542;27;20031;-94
2023/08/06 09:18:12;;;;;;;0.20;0.20;;;;;;;26.58;52.07;99936.75;5081880;27;20047;-92
2023/08/06 09:20:41;;;;;;;0.20;0.20;;;;;;;26.65;51.50;99930.69;5081060;27;20023;-91
2023/08/06 09:23:10;;;;;;;0.20;0.20;;;;;;;26.86;50.70;99915.47;5081445;27;20077;-91
2023/08/06 09:25:42;;;;;;;0.20;0.20;;;;;;;27.09;49.60;99914.34;5081178;27;20023;-93
2023/08/06 09:28:07;;;;;;;0.10;0.10;;;;;;;26.94;50.30;99919.78;5082494;27;20499;-91
2023/08/06 09:30:36;;;;;;;0.10;0.10;;;;;;;27.14;48.94;99910.09;5082381;27;20039;-92
2023/08/06 09:33:01;;;;;;;0.10;0.10;;;;;;;27.12;49.38;99898.84;5081371;27;20408;-94
2023/08/06 09:35:30;;;;;;;0.10;0.10;;;;;;;26.69;50.53;99926.59;5081832;27;20042;-91
2023/08/06 09:38:06;;;;;;;0.10;0.10;;;;;;;26.70;50.65;99918.44;5081603;27;20030;-93
2023/08/06 09:40:32;;;;;;;0.20;0.20;;;;;;;26.67;51.21;99918.03;5082831;27;20023;-93
2023/08/06 09:42:58;;;;;;;0.20;0.20;;;;;;;26.77;51.35;99921.97;5081266;27;20034;-91
2023/08/06 09:45:28;;;;;;;0.10;0.10;;;;;;;26.66;50.55;99917.22;5081231;27;20064;-92
2023/08/06 09:47:56;;;;;;;0.20;0.20;;;;;;;27.05;49.36;99921.91;5081606;27;20499;-91
2023/08/06 09:50:22;;;;;;;0.10;0.10;;;;;;;26.91;49.52;99892.81;5081086;27;20126;-91
2023/08/06 09:52:48;;;;;;;0.10;0.10;;;;;;;27.17;50.86;99923.97;5081142;27;20099;-92
2023/08/06 09:55:14;;;;;;;0.10;0.10;;;;;;;27.38;50.07;99929.13;5081377;27;20038;-93
2023/08/06 09:57:41;;;;;;;0.20;0.20;;;;;;;27.29;48.25;99936.47;5081370;27;20031;-94
2023/08/06 10:00:10;;;;;;;0.20;0.20;;;;;;;27.48;49.20;99934.06;5081265;27;20416;-91
2023/08/06 10:02:37;;;;;;;0.20;0.20;;;;;;;27.55;47.64;99938.38;5081957;27;20023;-92
2023/08/06 10:05:03;;;;;;;0.10;0.10;;;;;;;27.49;48.23;99936.50;5081388;27;20071;-92
2023/08/06 10:07:29;;;;;;;0.10;0.10;;;;;;;27.65;47.48;99944.16;5080929;27;20031;-93
2023/08/06 10:09:55;;;;;;;0.20;0.20;;;;;;;27.65;46.88;99936.16;5081411;27;20053;-92
2023/08/06 10:12:21;;;;;;;0.20;0.20;;;;;;;27.75;46.75;99946.41;5081496;27;20499;-92
2023/08/06 10:14:46;;;;;;;0.20;0.20;;;;;;;27.76;46.52;99934.75;5081299;27;20034;-92
2023/08/06 10:17:12;;;;;;;0.20;0.20;;;;;;;28.10;46.72;99939.03;5080624;28;20043;-93
2023/08/06 10:19:37;;;;;;;0.20;0.20;;;;;;;28.15;44.84;99944.56;5081055;28;20034;-91
2023/08/06 10:22:18;;;;;;;0.20;0.20;;;;;;;28.14;45.20;99939.47;5080983;28;20468;-92
2023/08/06 10:25:06;;;;;;;0.20;0.20;;;;;;;28.37;45.25;99941.69;5081383;28;20030;-92
2023/08/06 10:27:35;;;;;;;0.20;0.20;;;;;;;28.33;45.59;99937.84;5082618;28;20484;-93
2023/08/06 10:30:25;;;;;;;0.10;0.10;;;;;;;28.26;44.91;99935.16;5097847;28;20027;-93
2023/08/06 10:33:11;;;;;;;0.20;0.20;;;;;;;28.51;43.97;99943.31;5114230;28;20027;-90
2023/08/06 10:35:36;;;;;;;0.20;0.20;;;;;;;28.57;43.87;99932.66;5096402;28;20042;-93
2023/08/06 10:38:05;;;;;;;0.10;0.10;;;;;;;28.31;43.76;99931.88;5115327;27;20118;-93
2023/08/06 10:40:32;;;;;;;0.20;0.20;;;;;;;28.10;43.90;99903.66;5119951;27;20122;-93
2023/08/06 10:43:01;;;;;;;0.20;0.20;;;;;;;28.16;44.21;99924.09;5085065;27;20492;-93
2023/08/06 10:45:30;;;;;;;0.20;0.20;;;;;;;28.37;43.14;99920.41;5085295;27;20046;-94
2023/08/06 10:47:57;;;;;;;0.17;0.17;;;;;;;28.64;42.98;99919.34;5085694;27;20034;-92
2023/08/06 10:50:23;;;;;;;0.20;0.20;;;;;;;28.56;42.81;99899.09;5085667;27;20480;-93
2023/08/06 10:52:48;;;;;;;0.10;0.10;;;;;;;28.58;42.04;99917.50;5085784;27;20073;-93
2023/08/06 10:55:40;;;;;;;0.20;0.20;;;;;;;28.66;41.88;99919.13;5085805;27;20035;-93
2023/08/06 10:58:05;;;;;;;0.20;0.20;;;;;;;28.56;43.25;99906.25;5105471;27;20027;-92
2023/08/06 11:00:31;;;;;;;0.20;0.20;;;;;;;28.42;43.32;99908.16;5085084;27;20038;-93
2023/08/06 11:02:56;;;;;;;0.20;0.20;;;;;;;28.43;42.00;99891.16;5084889;27;20030;-94
2023/08/06 11:05:22;;;;;;;0.20;0.20;;;;;;;28.77;42.05;99905.16;5084874;27;20026;-94
2023/08/06 11:07:49;;;;;;;0.20;0.20;;;;;;;28.83;41.16;99910.47;5084954;27;20027;-94
2023/08/06 11:10:14;;;;;;;0.20;0.20;;;;;;;29.02;42.29;99898.13;5084918;27;20034;-92
2023/08/06 11:12:40;;;;;;;0.10;0.10;;;;;;;28.81;42.15;99891.22;5084794;27;20023;-94
2023/08/06 11:15:06;;;;;;;0.10;0.10;;;;;;;28.86;41.60;99893.25;5085281;27;20031;-92
2023/08/06 11:17:33;;;;;;;0.20;0.20;;;;;;;29.01;42.55;99898.34;5083946;27;20138;-92
2023/08/06 11:20:03;;;;;;;0.20;0.20;;;;;;;28.79;43.28;99906.56;5084416;27;20023;-93
2023/08/06 11:22:28;;;;;;;0.20;0.20;;;;;;;28.81;43.26;99896.56;5084467;27;20035;-95
2023/08/06 11:24:55;;;;;;;0.13;0.13;;;;;;;28.81;42.63;99901.88;5084432;27;20400;-93
2023/08/06 11:27:20;;;;;;;0.17;0.17;;;;;;;28.65;42.77;99896.19;5101122;27;20019;-93
2023/08/06 11:29:46;;;;;;;0.20;0.20;;;;;;;28.56;44.97;99903.59;5080032;28;20026;-92
2023/08/06 11:32:12;;;;;;;0.20;0.20;;;;;;;28.50;45.89;99894.59;5064254;28;20027;-94
2023/08/06 11:34:37;;;;;;;0.10;0.10;;;;;;;28.35;45.85;99898.53;5063788;28;20031;-93
2023/08/06 11:37:05;;;;;;;0.10;0.10;;;;;;;28.20;46.55;99912.03;5065114;28;20462;-92
2023/08/06 11:39:34;;;;;;;0.17;0.17;;;;;;;28.02;47.31;99910.00;5064138;28;20038;-93
2023/08/06 11:42:02;;;;;;;0.10;0.10;;;;;;;27.98;47.09;99896.31;5064350;28;20096;-91
2023/08/06 11:44:30;;;;;;;0.10;0.10;;;;;;;27.93;46.41;99909.41;5064808;28;20039;-93
2023/08/06 11:46:55;;;;;;;0.10;0.10;;;;;;;27.99;46.38;99899.78;5063805;28;20038;-93
2023/08/06 11:49:47;;;;;;;0.10;0.10;;;;;;;27.96;47.36;99897.53;5062622;28;20059;-91
2023/08/06 11:52:23;;;;;;;0.10;0.10;;;;;;;27.98;46.77;99892.81;5080803;28;20028;-93
2023/08/06 11:55:07;;;;;;;0.20;0.20;;;;;;;28.16;46.92;99900.19;5064098;28;20024;-93
2023/08/06 11:57:35;;;;;;;0.20;0.20;;;;;;;28.26;45.87;99887.28;5080385;28;20031;-91
2023/08/06 12:00:08;;;;;;;0.20;0.20;;;;;;;28.46;43.97;99881.94;5064032;28;20039;-92
2023/08/06 12:02:37;;;;;;;0.20;0.20;;;;;;;28.50;43.61;99875.97;5064758;28;20126;-93
2023/08/06 12:05:23;;;;;;;0.20;0.20;;;;;;;28.91;44.46;99871.31;5064465;28;20027;-92
2023/08/06 12:07:51;;;;;;;0.20;0.20;;;;;;;29.00;44.16;99872.72;5064095;28;20032;-92
2023/08/06 12:10:19;;;;;;;0.20;0.20;;;;;;;29.06;44.68;99871.88;5063525;28;20028;-93
2023/08/06 12:12:45;;;;;;;0.20;0.20;;;;;;;29.25;42.64;99870.94;5064079;28;20527;-93
2023/08/06 12:15:10;;;;;;;0.20;0.20;;;;;;;29.43;43.35;99868.34;5063541;28;20110;-93
2023/08/06 12:17:36;;;;;;;0.20;0.20;;;;;;;29.62;43.10;99865.78;5062509;28;20044;-93
2023/08/06 12:20:05;;;;;;;0.20;0.20;;;;;;;29.68;42.95;99870.22;5062926;28;20037;-94
2023/08/06 12:22:34;;;;;;;0.15;0.15;;;;;;;29.85;42.13;99863.31;5063159;28;20399;-92
2023/08/06 12:25:00;;;;;;;0.20;0.20;;;;;;;30.11;41.12;99869.47;5064401;28;20028;-93
2023/08/06 12:27:25;;;;;;;0.20;0.20;;;;;;;30.13;40.98;99876.22;5063443;28;20058;-92
2023/08/06 12:29:51;;;;;;;0.20;0.20;;;;;;;30.19;40.16;99869.19;5063114;28;20031;-92
2023/08/06 12:32:17;;;;;;;0.20;0.20;;;;;;;29.93;40.74;99857.72;5064123;28;20111;-94
2023/08/06 12:34:42;;;;;;;0.20;0.20;;;;;;;29.89;41.87;99861.88;5064673;28;20067;-94
2023/08/06 12:37:08;;;;;;;0.20;0.20;;;;;;;30.09;39.93;99860.88;5062764;28;20397;-93
2023/08/06 12:39:37;;;;;;;0.20;0.20;;;;;;;30.02;40.13;99868.09;5062888;28;20057;-91
2023/08/06 12:42:03;;;;;;;0.20;0.20;;;;;;;29.75;40.84;99857.66;5063123;28;20408;-91
2023/08/06 12:44:29;;;;;;;0.15;0.15;;;;;;;29.95;39.59;99852.16;5062219;28;20119;-93
2023/08/06 12:46:55;;;;;;;0.20;0.20;;;;;;;29.92;37.62;99850.75;5062777;28;20110;-93
2023/08/06 12:49:23;;;;;;;0.20;0.20;;;;;;;30.13;36.82;99846.06;5062867;28;20038;-94
2023/08/06 12:51:49;;;;;;;0.20;0.20;;;;;;;30.33;36.84;99852.00;5063727;28;20028;-93
2023/08/06 12:54:16;;;;;;;0.10;0.10;;;;;;;30.22;35.96;99839.41;5062966;28;20027;-92
2023/08/06 12:56:41;;;;;;;0.20;0.20;;;;;;;29.92;37.85;99839.28;5063340;28;20031;-94
2023/08/06 12:59:07;;;;;;;0.20;0.20;;;;;;;30.27;38.02;99851.03;5058929;28;20401;-93
2023/08/06 13:01:32;;;;;;;0.20;0.20;;;;;;;30.39;37.02;99836.97;5042121;28;20028;-93
2023/08/06 13:03:59;;;;;;;0.20;0.20;;;;;;;30.16;38.87;99845.63;5042174;28;20085;-91
2023/08/06 13:06:24;;;;;;;0.20;0.20;;;;;;;29.94;39.74;99853.19;5059069;28;20027;-92
2023/08/06 13:08:50;;;;;;;0.15;0.15;;;;;;;29.83;38.91;99849.41;5042344;28;20032;-93
2023/08/06 13:11:15;;;;;;;0.20;0.20;;;;;;;29.43;37.64;99851.56;5042133;28;20035;-91
2023/08/06 13:13:41;;;;;;;0.15;0.15;;;;;;;29.34;39.26;99837.69;5041910;28;20459;-93
2023/08/06 13:16:06;;;;;;;0.10;0.10;;;;;;;29.06;39.80;99840.72;5041719;28;20024;-92
2023/08/06 13:18:32;;;;;;;0.20;0.20;;;;;;;29.04;40.28;99842.81;5041921;28;20051;-91
2023/08/06 13:20:58;;;;;;;0.20;0.20;;;;;;;28.74;40.31;99839.88;5041938;28;20039;-92
2023/08/06 13:23:23;;;;;;;0.20;0.20;;;;;;;29.01;40.04;99831.78;5041507;28;20028;-93
2023/08/06 13:25:49;;;;;;;0.20;0.20;;;;;;;29.13;40.17;99846.03;5041751;28;20414;-93
2023/08/06 13:28:14;;;;;;;0.20;0.20;;;;;;;28.73;41.09;99842.75;5041691;28;20024;-93
2023/08/06 13:30:42;;;;;;;0.20;0.20;;;;;;;29.02;40.67;99844.06;5041575;28;20432;-93
2023/08/06 13:33:08;;;;;;;0.20;0.20;;;;;;;28.98;40.98;99837.50;5059019;28;20055;-92
2023/08/06 13:35:33;;;;;;;0.20;0.20;;;;;;;29.02;40.41;99838.72;5058260;28;20020;-93
2023/08/06 13:37:59;;;;;;;0.10;0.10;;;;;;;28.92;40.19;99841.03;5041285;28;20408;-93
2023/08/06 13:40:24;;;;;;;0.20;0.20;;;;;;;29.05;40.66;99848.94;5041442;28;20027;-93
2023/08/06 13:42:50;;;;;;;0.20;0.20;;;;;;;29.07;40.38;99836.22;5041253;28;20035;-93
2023/08/06 13:45:15;;;;;;;0.20;0.20;;;;;;;29.11;41.00;99858.75;5041386;28;20042;-93
2023/08/06 13:47:41;;;;;;;0.10;0.10;;;;;;;29.13;39.98;99848.69;5041242;28;20054;-92
2023/08/06 13:50:07;;;;;;;0.10;0.10;;;;;;;29.21;39.53;99843.13;5041370;28;20123;-92
2023/08/06 13:52:33;;;;;;;0.15;0.15;;;;;;;29.18;39.11;99848.84;5042439;28;20506;-91
2023/08/06 13:54:58;;;;;;;0.20;0.20;;;;;;;29.11;39.79;99843.59;5041032;28;20106;-92
2023/08/06 13:57:24;;;;;;;0.20;0.20;;;;;;;29.23;39.49;99835.72;5040942;28;20102;-93
2023/08/06 13:59:49;;;;;;;0.20;0.20;;;;;;;29.23;39.62;99834.91;5041321;28;20035;-92
2023/08/06 14:02:15;;;;;;;0.20;0.20;;;;;;;29.18;38.96;99846.19;5041248;28;20508;-92
2023/08/06 14:04:40;;;;;;;0.10;0.10;;;;;;;29.11;38.94;99848.09;5041020;28;20031;-93
2023/08/06 14:07:06;;;;;;;0.20;0.20;;;;;;;29.05;38.94;99846.28;5041097;28;20035;-93